This is the latest recevied weather packets stored in our database for station/object OK1HOL-13. If no packets are shown the sender has not sent any weather packets the latest 10 day(s).
| Time | Temp. | Humidity | Pressure | Rain* | Wind** | Luminosity | Snow |
|---|---|---|---|---|---|---|---|
| 1777914358 | 23.89° C | 31% | 1010.7 hPa | - | - | 23 W/m² | - |
| 1777913758 | 23.89° C | 31% | 1010.8 hPa | - | - | 24 W/m² | - |
| 1777913158 | 24.44° C | 31% | 1010.8 hPa | - | - | 24 W/m² | - |
| 1777912558 | 24.44° C | 30% | 1010.8 hPa | - | - | 32 W/m² | - |
| 1777911958 | 24.44° C | 30% | 1010.9 hPa | - | - | 35 W/m² | - |
| 1777911358 | 24.44° C | 30% | 1011 hPa | - | - | 34 W/m² | - |
| 1777910758 | 24.44° C | 30% | 1011 hPa | - | - | 50 W/m² | - |
| 1777910158 | 24.44° C | 30% | 1011 hPa | - | - | 58 W/m² | - |
| 1777908958 | 25.56° C | 28% | 1011.2 hPa | - | - | 83 W/m² | - |
| 1777908358 | 26.11° C | 27% | 1011.2 hPa | - | - | 77 W/m² | - |
| 1777907758 | 25° C | 28% | 1011.3 hPa | - | - | 78 W/m² | - |
| 1777907158 | 27.22° C | 25% | 1011.3 hPa | - | - | 151 W/m² | - |
| 1777906558 | 26.67° C | 26% | 1011.4 hPa | - | - | 226 W/m² | - |
| 1777905358 | 26.67° C | 26% | 1011.6 hPa | - | - | 275 W/m² | - |
| 1777904758 | 25.56° C | 27% | 1011.7 hPa | - | - | 273 W/m² | - |
| 1777904158 | 25.56° C | 28% | 1011.7 hPa | - | - | 243 W/m² | - |
| 1777903558 | 26.67° C | 26% | 1011.9 hPa | - | - | 161 W/m² | - |
| 1777902958 | 26.11° C | 28% | 1011.9 hPa | - | - | 272 W/m² | - |
| 1777902358 | 26.11° C | 27% | 1012 hPa | - | - | 226 W/m² | - |
| 1777901758 | 26.67° C | 27% | 1012.1 hPa | - | - | 361 W/m² | - |
| 1777901158 | 25.56° C | 28% | 1012.2 hPa | - | - | 260 W/m² | - |
| 1777900561 | 25° C | 28% | 1012.2 hPa | - | - | 0 W/m² | - |
| 1777899957 | 26.11° C | 27% | 1012.2 hPa | - | - | 278 W/m² | - |
| 1777899357 | 25.56° C | 27% | 1012.4 hPa | - | - | 224 W/m² | - |
| 1777898757 | 25° C | 27% | 1012.4 hPa | - | - | 221 W/m² | - |
* Rain since midnight (hover to see other rain measurements)
** Current wind speed in m/s (hover to see current wind gust speed)